createdAt,value
2019-04-22T00:01:40.477Z,59.08
2019-04-22T00:04:47.576Z,46.13
2019-04-22T00:08:00.327Z,52.33
2019-04-22T00:10:56.094Z,49.13
2019-04-22T00:16:48.702Z,51.92
2019-04-22T00:19:43.881Z,50.95
2019-04-22T00:22:34.604Z,57.38
2019-04-22T00:28:29.205Z,49.38
2019-04-22T00:31:46.241Z,48.90
2019-04-22T00:34:48.989Z,58.25
2019-04-22T00:37:43.704Z,49.88
2019-04-22T00:40:41.291Z,64.20
2019-04-22T00:43:45.861Z,72.50
2019-04-22T00:46:36.160Z,171.47
2019-04-22T00:52:22.326Z,159.72
2019-04-22T00:55:23.088Z,155.32
2019-04-22T00:58:19.200Z,147.15
2019-04-22T01:01:17.404Z,130.90
2019-04-22T01:04:12.555Z,130.78
2019-04-22T01:07:04.091Z,218.12
2019-04-22T01:12:56.993Z,231.55
2019-04-22T01:15:57.471Z,217.62
2019-04-22T01:18:48.779Z,261.68
2019-04-22T01:21:47.797Z,245.12
2019-04-22T01:24:32.378Z,215.45
2019-04-22T01:27:26.342Z,235.68
2019-04-22T01:30:21.166Z,221.87
2019-04-22T01:33:14.078Z,205.75
2019-04-22T01:36:21.437Z,215.77
2019-04-22T01:39:36.286Z,216.53
2019-04-22T01:42:37.386Z,238.68
2019-04-22T01:45:14.922Z,262.48
2019-04-22T01:48:10.480Z,275.18
2019-04-22T01:51:00.991Z,268.75
2019-04-22T01:54:19.710Z,280.35
2019-04-22T01:57:03.225Z,265.98
2019-04-22T01:59:59.070Z,231.17
2019-04-22T02:03:04.462Z,215.20
2019-04-22T02:05:59.333Z,198.02
2019-04-22T02:11:53.354Z,192.82
2019-04-22T02:14:44.330Z,179.38
2019-04-22T02:17:47.465Z,168.13
2019-04-22T02:20:41.159Z,155.15
2019-04-22T02:26:35.455Z,143.02
2019-04-22T02:29:31.074Z,161.80
2019-04-22T02:32:42.030Z,157.25
2019-04-22T02:35:34.160Z,151.15
2019-04-22T02:38:35.685Z,169.43
2019-04-22T02:44:13.898Z,180.03
2019-04-22T02:50:07.424Z,179.87
2019-04-22T02:53:01.330Z,188.30
2019-04-22T02:56:12.128Z,190.15
2019-04-22T02:59:07.308Z,177.45
2019-04-22T03:02:07.670Z,157.75
2019-04-22T03:04:43.766Z,154.45
2019-04-22T03:07:50.761Z,123.42
2019-04-22T03:10:56.260Z,90.97
2019-04-22T03:13:46.808Z,78.17
2019-04-22T03:19:48.178Z,95.55
2019-04-22T03:22:28.662Z,83.47
2019-04-22T03:39:20.352Z,61.18
2019-04-22T03:47:47.847Z,61.33
2019-04-22T03:50:52.590Z,60.03
2019-04-22T03:53:33.573Z,68.87
2019-04-22T04:08:18.415Z,63.13
2019-04-22T04:10:57.580Z,52.78
2019-04-22T04:14:11.116Z,59.00
2019-04-22T04:17:02.339Z,57.08
2019-04-22T04:20:06.090Z,51.70
2019-04-22T04:31:43.271Z,50.17
2019-04-22T04:37:52.265Z,60.30
2019-04-22T04:43:33.347Z,45.67
2019-04-22T05:29:43.515Z,49.25
2019-04-22T05:32:35.652Z,52.75
2019-04-22T05:35:41.224Z,45.43
2019-04-22T05:38:49.432Z,46.98
2019-04-22T05:41:48.375Z,49.30
2019-04-22T05:44:45.140Z,38.00
2019-04-22T05:47:46.371Z,44.05
2019-04-22T05:50:45.313Z,41.02
2019-04-22T05:53:48.388Z,42.33
2019-04-22T05:56:47.712Z,38.17
2019-04-22T05:59:56.959Z,45.00
2019-04-22T06:05:55.601Z,46.48
2019-04-22T06:11:55.533Z,38.05
2019-04-22T06:15:01.324Z,31.62
2019-04-22T06:18:03.001Z,34.33
2019-04-22T06:21:03.727Z,31.57
2019-04-22T06:28:04.874Z,29.82
2019-04-22T06:30:57.358Z,34.95
2019-04-22T06:33:58.161Z,31.57
2019-04-22T06:36:50.891Z,31.85
2019-04-22T06:39:45.136Z,34.85
2019-04-22T06:42:47.561Z,25.55
2019-04-22T06:45:40.002Z,28.20
2019-04-22T06:48:42.383Z,26.57
2019-04-22T06:51:46.849Z,24.50
2019-04-22T06:54:49.034Z,28.52
2019-04-22T06:57:52.727Z,34.23
2019-04-22T07:04:56.289Z,37.67
2019-04-22T07:07:53.487Z,35.50
2019-04-22T07:21:57.166Z,31.23
2019-04-22T07:28:29.021Z,29.90
2019-04-22T07:31:34.146Z,27.95
2019-04-22T07:37:43.440Z,28.40
2019-04-22T07:40:55.479Z,26.62
2019-04-22T07:44:13.373Z,26.07
2019-04-22T07:47:13.881Z,25.08
2019-04-22T07:52:52.093Z,29.63
2019-04-22T07:55:54.994Z,40.55
2019-04-22T07:58:49.063Z,26.62
2019-04-22T08:01:44.043Z,26.42
2019-04-22T08:05:03.650Z,24.92
2019-04-22T08:07:34.621Z,22.73
2019-04-22T08:13:36.529Z,33.90
2019-04-22T08:16:36.873Z,24.82
2019-04-22T08:19:35.364Z,19.10
2019-04-22T08:22:40.162Z,23.67
2019-04-22T08:25:27.154Z,22.07
2019-04-22T08:28:25.613Z,19.80
2019-04-22T08:31:25.098Z,30.65
2019-04-22T08:34:23.256Z,23.25
2019-04-22T08:40:15.455Z,22.87
2019-04-22T08:43:15.571Z,20.90
2019-04-22T08:46:10.280Z,27.93
2019-04-22T08:49:05.861Z,21.27
2019-04-22T08:52:01.302Z,26.62
2019-04-22T09:00:57.202Z,32.78
2019-04-22T09:03:52.288Z,28.90
2019-04-22T09:09:44.442Z,23.67
2019-04-22T09:15:42.215Z,25.00
2019-04-22T09:18:42.237Z,17.48
2019-04-22T09:21:35.879Z,14.60
2019-04-22T09:24:35.673Z,24.50
2019-04-22T09:30:49.564Z,22.05
2019-04-22T09:33:43.299Z,30.72
2019-04-22T09:36:58.929Z,20.75
2019-04-22T09:40:13.968Z,23.95
2019-04-22T09:42:50.351Z,22.27
2019-04-22T09:45:52.886Z,26.05
2019-04-22T09:49:04.752Z,23.12
2019-04-22T09:51:55.426Z,22.77
2019-04-22T09:54:59.781Z,26.45
2019-04-22T09:57:53.058Z,19.10
2019-04-22T10:00:54.192Z,22.32
2019-04-22T10:03:45.154Z,31.37
2019-04-22T10:06:36.680Z,21.23
2019-04-22T10:09:52.849Z,33.10
2019-04-22T10:12:36.583Z,21.07
2019-04-22T10:15:33.315Z,31.15
2019-04-22T10:18:32.533Z,27.48
2019-04-22T10:21:41.430Z,24.80
2019-04-22T10:24:24.782Z,33.30
2019-04-22T10:27:20.902Z,28.87
2019-04-22T10:30:29.485Z,31.75
2019-04-22T10:33:10.082Z,27.45
2019-04-22T10:35:49.668Z,23.40
2019-04-22T10:38:48.711Z,20.32
2019-04-22T10:41:44.434Z,22.55
2019-04-22T10:44:46.476Z,22.95
2019-04-22T10:47:49.965Z,27.07
2019-04-22T10:50:52.574Z,27.73
2019-04-22T10:53:47.172Z,26.27
2019-04-22T10:56:48.776Z,26.50
2019-04-22T10:59:46.877Z,29.18
2019-04-22T11:02:43.836Z,18.05
2019-04-22T11:05:53.914Z,20.72
2019-04-22T11:08:52.823Z,24.52
2019-04-22T11:11:54.490Z,27.02
2019-04-22T11:14:43.204Z,19.10
2019-04-22T11:17:37.703Z,30.97
2019-04-22T11:20:35.507Z,30.02
2019-04-22T11:23:34.311Z,23.77
2019-04-22T11:26:28.090Z,22.25
2019-04-22T11:29:23.640Z,22.85
2019-04-22T11:32:18.300Z,16.80
2019-04-22T11:35:14.334Z,25.72
2019-04-22T11:38:11.176Z,17.75
2019-04-22T11:41:12.621Z,29.27
2019-04-22T11:44:17.064Z,30.08
2019-04-22T11:47:19.266Z,21.87
2019-04-22T11:53:49.134Z,23.57
2019-04-22T11:56:49.617Z,29.57
2019-04-22T11:59:54.497Z,26.60
2019-04-22T12:02:54.701Z,24.30
2019-04-22T12:05:59.712Z,22.15
2019-04-22T12:09:01.549Z,26.17
2019-04-22T12:11:58.083Z,21.95
2019-04-22T12:14:56.452Z,22.13
2019-04-22T12:17:55.249Z,26.55
2019-04-22T12:20:55.280Z,34.00
2019-04-22T12:23:55.285Z,31.40
2019-04-22T12:26:55.912Z,34.18
2019-04-22T12:29:51.176Z,27.87
2019-04-22T12:32:50.417Z,32.33
2019-04-22T12:35:46.435Z,29.48
2019-04-22T12:38:41.819Z,30.80
2019-04-22T12:41:42.225Z,32.38
2019-04-22T12:44:39.060Z,25.97
2019-04-22T12:47:33.587Z,35.23
2019-04-22T12:50:33.711Z,40.90
2019-04-22T12:53:27.927Z,40.58
2019-04-22T12:56:25.856Z,41.92
2019-04-22T12:59:21.499Z,36.17
2019-04-22T13:02:29.465Z,39.00
2019-04-22T13:09:02.203Z,25.97
2019-04-22T13:11:59.245Z,40.00
2019-04-22T13:14:57.211Z,33.50
2019-04-22T13:18:04.579Z,27.30
2019-04-22T13:20:52.855Z,31.40
2019-04-22T13:23:48.877Z,32.67
2019-04-22T13:26:45.251Z,36.28
2019-04-22T13:29:41.200Z,37.65
2019-04-22T13:32:38.670Z,40.15
2019-04-22T13:35:33.916Z,35.05
2019-04-22T13:38:42.965Z,31.65
2019-04-22T13:41:48.748Z,38.20
2019-04-22T13:44:38.113Z,33.78
2019-04-22T13:47:54.687Z,35.85
2019-04-22T13:56:43.180Z,62.48
2019-04-22T13:59:30.249Z,53.87
2019-04-22T14:02:53.102Z,56.92
2019-04-22T14:05:49.219Z,65.28
2019-04-22T14:08:45.186Z,52.80
2019-04-22T14:11:49.323Z,52.58
2019-04-22T14:14:40.737Z,48.52
2019-04-22T14:17:34.864Z,66.47
2019-04-22T14:20:32.729Z,58.08
2019-04-22T14:23:26.861Z,63.83
2019-04-22T14:26:23.039Z,56.45
2019-04-22T14:29:17.684Z,48.95
2019-04-22T14:32:17.605Z,57.83
2019-04-22T14:35:11.643Z,75.03
2019-04-22T14:38:08.315Z,72.70
2019-04-22T14:41:03.039Z,68.47
2019-04-22T14:44:56.417Z,68.83
2019-04-22T14:50:14.330Z,62.70
2019-04-22T14:53:04.162Z,54.85
2019-04-22T14:55:42.456Z,76.75
2019-04-22T14:58:38.756Z,66.25
2019-04-22T15:01:37.949Z,66.53
2019-04-22T15:04:31.240Z,70.55
2019-04-22T15:07:26.629Z,50.92
2019-04-22T15:10:24.261Z,94.92
2019-04-22T15:13:21.091Z,69.12
2019-04-22T15:16:38.158Z,75.17
2019-04-22T15:19:38.011Z,76.60
2019-04-22T15:22:34.579Z,65.67
2019-04-22T15:25:30.593Z,63.33
2019-04-22T15:28:27.546Z,70.65
2019-04-22T15:31:24.511Z,79.17
2019-04-22T15:34:20.742Z,73.33
2019-04-22T15:37:16.424Z,86.55
2019-04-22T15:40:13.090Z,67.22
2019-04-22T15:43:08.772Z,59.55
2019-04-22T15:46:05.597Z,73.28
2019-04-22T15:49:02.121Z,59.35
2019-04-22T15:52:00.750Z,47.00
2019-04-22T15:54:54.042Z,51.92
2019-04-22T15:57:51.996Z,58.38
2019-04-22T16:00:58.103Z,57.67
2019-04-22T16:03:44.849Z,53.92
2019-04-22T16:06:41.222Z,50.10
2019-04-22T16:09:39.370Z,62.20
2019-04-22T16:12:44.075Z,61.05
2019-04-22T16:15:34.327Z,59.27
2019-04-22T16:18:30.703Z,62.83
2019-04-22T16:21:32.739Z,54.98
2019-04-22T16:24:54.037Z,64.90
2019-04-22T16:27:50.240Z,71.60
2019-04-22T16:30:45.734Z,58.45
2019-04-22T16:33:43.742Z,51.50
2019-04-22T16:36:38.798Z,58.73
2019-04-22T16:39:36.457Z,60.05
2019-04-22T16:42:42.578Z,57.88
2019-04-22T16:45:27.866Z,71.75
2019-04-22T16:48:25.383Z,66.45
2019-04-22T16:51:22.154Z,71.00
2019-04-22T16:54:17.973Z,70.65
2019-04-22T16:57:12.851Z,61.35
2019-04-22T17:00:10.946Z,76.12
2019-04-22T17:03:22.644Z,67.12
2019-04-22T17:06:25.543Z,61.00
2019-04-22T17:09:21.613Z,78.25
2019-04-22T17:12:17.953Z,63.45
2019-04-22T17:15:16.243Z,58.02
2019-04-22T17:18:10.272Z,61.15
2019-04-22T17:21:08.446Z,62.25
2019-04-22T17:24:03.597Z,53.78
2019-04-22T17:27:00.135Z,58.85
2019-04-22T17:29:54.778Z,55.33
2019-04-22T17:32:52.354Z,55.55
2019-04-22T17:35:50.190Z,57.27
2019-04-22T17:38:54.244Z,71.90
2019-04-22T17:41:59.579Z,66.37
2019-04-22T17:45:24.121Z,49.18
2019-04-22T17:48:30.496Z,42.25
2019-04-22T17:54:28.265Z,44.83
2019-04-22T17:57:19.184Z,46.20
2019-04-22T18:00:11.769Z,42.65
2019-04-22T18:03:03.085Z,39.35
2019-04-22T18:05:53.212Z,38.98
2019-04-22T18:09:06.689Z,40.88
2019-04-22T18:12:11.858Z,36.30
2019-04-22T18:15:05.101Z,46.37
2019-04-22T18:18:03.656Z,38.05
2019-04-22T18:20:45.872Z,35.17
2019-04-22T18:23:42.181Z,33.05
2019-04-22T18:26:47.582Z,44.77
2019-04-22T18:29:37.585Z,37.38
2019-04-22T18:32:38.324Z,36.15
2019-04-22T18:35:32.352Z,35.92
2019-04-22T18:38:42.364Z,47.23
2019-04-22T18:41:23.438Z,44.53
2019-04-22T18:44:23.532Z,47.95
2019-04-22T18:47:14.602Z,45.33
2019-04-22T18:50:03.008Z,43.02
2019-04-22T18:53:29.750Z,42.73
2019-04-22T18:56:33.925Z,30.50
2019-04-22T18:59:18.495Z,35.20
2019-04-22T19:02:13.988Z,36.03
2019-04-22T19:05:17.472Z,42.50
2019-04-22T19:08:26.023Z,35.98
2019-04-22T19:11:17.528Z,41.25
2019-04-22T19:14:20.665Z,42.23
2019-04-22T19:17:18.978Z,35.23
2019-04-22T19:23:04.185Z,45.88
2019-04-22T19:25:59.114Z,45.10
2019-04-22T19:28:54.139Z,38.73
2019-04-22T19:31:56.877Z,45.50
2019-04-22T19:34:47.719Z,44.77
2019-04-22T19:37:41.421Z,36.03
2019-04-22T19:40:54.944Z,39.20
2019-04-22T19:43:43.340Z,42.08
2019-04-22T19:46:35.295Z,47.27
2019-04-22T19:49:38.347Z,42.85
2019-04-22T19:52:29.028Z,46.55
2019-04-22T19:55:23.819Z,39.33
2019-04-22T19:58:15.172Z,44.65
2019-04-22T20:01:45.546Z,38.38
2019-04-22T20:04:46.952Z,45.67
2019-04-22T20:07:51.126Z,43.50
2019-04-22T20:10:44.364Z,47.43
2019-04-22T20:13:41.369Z,45.45
2019-04-22T20:16:36.096Z,41.88
2019-04-22T20:19:41.321Z,35.52
2019-04-22T20:22:30.301Z,34.55
2019-04-22T20:25:14.652Z,42.50
2019-04-22T20:28:19.687Z,37.98
2019-04-22T20:31:18.950Z,40.30
2019-04-22T20:34:14.346Z,38.63
2019-04-22T20:37:15.488Z,30.68
2019-04-22T20:40:08.574Z,32.88
2019-04-22T20:43:07.600Z,33.30
2019-04-22T20:46:02.997Z,36.68
2019-04-22T20:48:54.980Z,33.55
2019-04-22T20:51:58.949Z,28.25
2019-04-22T20:54:44.603Z,37.88
2019-04-22T20:57:50.104Z,26.80
2019-04-22T21:00:36.316Z,34.45
2019-04-22T21:03:28.371Z,42.85
2019-04-22T21:06:33.366Z,32.50
2019-04-22T21:09:36.661Z,31.27
2019-04-22T21:12:21.194Z,34.67
2019-04-22T21:15:31.443Z,43.65
2019-04-22T21:18:19.202Z,38.30
2019-04-22T21:21:23.982Z,32.05
2019-04-22T21:24:02.906Z,30.48
2019-04-22T21:27:14.056Z,29.48
2019-04-22T21:29:58.256Z,31.33
2019-04-22T21:33:00.859Z,30.08
2019-04-22T21:38:50.866Z,41.10
2019-04-22T21:41:47.309Z,26.62
2019-04-22T21:44:39.815Z,38.63
2019-04-22T21:47:51.513Z,34.43
2019-04-22T21:53:41.658Z,24.70
2019-04-22T21:56:54.811Z,42.98
2019-04-22T21:59:27.003Z,28.98
2019-04-22T22:02:28.038Z,29.23
2019-04-22T22:05:11.217Z,27.67
2019-04-22T22:08:23.454Z,24.98
2019-04-22T22:11:06.491Z,26.15
2019-04-22T22:14:07.821Z,33.98
2019-04-22T22:16:54.661Z,22.17
2019-04-22T22:19:54.491Z,27.58
2019-04-22T22:23:00.099Z,31.25
2019-04-22T22:25:49.191Z,31.02
2019-04-22T22:29:05.359Z,33.53
2019-04-22T22:31:46.277Z,31.57
2019-04-22T22:34:34.876Z,28.65
2019-04-22T22:37:22.102Z,34.05
2019-04-22T22:40:14.610Z,32.38
2019-04-22T22:43:15.942Z,32.42
2019-04-22T22:46:13.451Z,29.60
2019-04-22T22:49:18.718Z,30.45
2019-04-22T22:52:36.799Z,31.02
2019-04-22T22:55:12.025Z,39.50
2019-04-22T22:58:06.135Z,28.27
2019-04-22T23:00:53.569Z,28.38
2019-04-22T23:03:55.947Z,30.10
2019-04-22T23:06:56.172Z,29.07
2019-04-22T23:09:51.592Z,34.80
2019-04-22T23:12:48.433Z,31.57
2019-04-22T23:15:39.020Z,67.60
2019-04-22T23:18:17.769Z,31.50
2019-04-22T23:21:22.288Z,37.67
2019-04-22T23:24:45.573Z,36.88
2019-04-22T23:27:46.532Z,53.00
2019-04-22T23:30:57.014Z,46.85
2019-04-22T23:34:04.665Z,53.87
2019-04-22T23:37:22.110Z,39.92
2019-04-22T23:40:32.572Z,43.80
2019-04-22T23:43:27.537Z,44.48
2019-04-22T23:46:19.009Z,45.88
2019-04-22T23:49:11.703Z,49.30
2019-04-22T23:52:16.312Z,49.40
2019-04-22T23:55:10.185Z,51.55
2019-04-22T23:58:03.525Z,66.62
